createdAt,value
2022-12-11T00:01:02.106Z,94601.2
2022-12-11T00:02:04.564Z,94601.9
2022-12-11T00:04:12.733Z,94606.1
2022-12-11T00:05:15.216Z,94607
2022-12-11T00:06:17.700Z,94608.1
2022-12-11T00:07:20.177Z,94606.7
2022-12-11T00:08:22.364Z,94605.5
2022-12-11T00:09:25.085Z,94608.9
2022-12-11T00:10:27.590Z,94610.5
2022-12-11T00:11:29.817Z,94602.5
2022-12-11T00:12:31.447Z,94608.6
2022-12-11T00:13:33.929Z,94606.4
2022-12-11T00:14:36.375Z,94610.8
2022-12-11T00:15:38.861Z,94612.2
2022-12-11T00:16:41.527Z,94607.7
2022-12-11T00:17:43.842Z,94608.4
2022-12-11T00:18:46.347Z,94603.4
2022-12-11T00:19:48.828Z,94602.4
2022-12-11T00:20:51.312Z,94603.7
2022-12-11T00:21:53.505Z,94609
2022-12-11T00:22:56.030Z,94603.2
2022-12-11T00:23:58.558Z,94604.8
2022-12-11T00:25:01.137Z,94600.9
2022-12-11T00:26:03.102Z,94601.2
2022-12-11T00:27:05.341Z,94603.5
2022-12-11T00:28:07.539Z,94606
2022-12-11T00:29:09.468Z,94606.8
2022-12-11T00:30:11.654Z,94601.8
2022-12-11T00:31:14.148Z,94603.3
2022-12-11T00:32:16.876Z,94600.9
2022-12-11T00:33:19.366Z,94604.7
2022-12-11T00:34:21.838Z,94601
2022-12-11T00:35:23.760Z,94604.1
2022-12-11T00:36:25.965Z,94606.1
2022-12-11T00:37:28.413Z,94611.4
2022-12-11T00:38:30.639Z,94605
2022-12-11T00:39:33.130Z,94610
2022-12-11T00:40:35.715Z,94607.6
2022-12-11T00:41:37.950Z,94608.9
2022-12-11T00:42:39.885Z,94608.4
2022-12-11T00:43:42.373Z,94603.1
2022-12-11T00:44:44.569Z,94604.1
2022-12-11T00:45:47.308Z,94603.2
2022-12-11T00:46:49.953Z,94603.5
2022-12-11T00:47:52.430Z,94602
2022-12-11T00:48:54.633Z,94604.1
2022-12-11T00:49:56.602Z,94602.7
2022-12-11T00:50:58.807Z,94601.8
2022-12-11T00:52:01.286Z,94600.7
2022-12-11T00:53:03.496Z,94599.5
2022-12-11T00:54:05.983Z,94605.3
2022-12-11T00:55:09.667Z,94602.5
2022-12-11T00:56:12.885Z,94607.9
2022-12-11T00:57:15.426Z,94605.1
2022-12-11T00:58:17.635Z,94606.8
2022-12-11T00:59:20.112Z,94602.5
2022-12-11T01:00:22.313Z,94609.1
2022-12-11T01:01:24.860Z,94606.8
2022-12-11T01:02:27.733Z,94609.6
2022-12-11T01:03:30.342Z,94608.5
2022-12-11T01:04:32.826Z,94616.6
2022-12-11T01:05:35.031Z,94616.6
2022-12-11T01:06:37.506Z,94612.3
2022-12-11T01:07:39.695Z,94614
2022-12-11T01:08:41.904Z,94618.9
2022-12-11T01:09:44.424Z,94614.5
2022-12-11T01:10:47.089Z,94615.7
2022-12-11T01:11:49.559Z,94617.3
2022-12-11T01:12:52.065Z,94620
2022-12-11T01:13:54.275Z,94616.1
2022-12-11T01:14:56.490Z,94614.6
2022-12-11T01:15:58.983Z,94614.5
2022-12-11T01:17:01.718Z,94612.9
2022-12-11T01:18:04.295Z,94617.4
2022-12-11T01:19:06.778Z,94619.7
2022-12-11T01:20:08.974Z,94621
2022-12-11T01:21:11.449Z,94620.4
2022-12-11T01:22:13.930Z,94620.3
2022-12-11T01:23:16.133Z,94626.7
2022-12-11T01:24:18.613Z,94622.5
2022-12-11T01:25:21.127Z,94623.6
2022-12-11T01:26:23.318Z,94628.2
2022-12-11T01:27:25.925Z,94630.7
2022-12-11T01:28:28.425Z,94631.1
2022-12-11T01:29:30.916Z,94628.8
2022-12-11T01:30:33.768Z,94631
2022-12-11T01:31:36.022Z,94632.7
2022-12-11T01:32:38.220Z,94630.4
2022-12-11T01:33:40.705Z,94635.1
2022-12-11T01:34:43.205Z,94636.4
2022-12-11T01:35:45.406Z,94637.8
2022-12-11T01:36:47.885Z,94641.1
2022-12-11T01:37:50.077Z,94646.8
2022-12-11T01:38:52.261Z,94647.8
2022-12-11T01:39:54.200Z,94648.4
2022-12-11T01:40:56.421Z,94653.9
2022-12-11T01:41:57.800Z,94651.2
2022-12-11T01:43:00.390Z,94648.2
2022-12-11T01:44:02.601Z,94651.6
2022-12-11T01:45:04.804Z,94648.4
2022-12-11T01:46:07.209Z,94650.4
2022-12-11T01:47:09.502Z,94646.9
2022-12-11T01:48:11.695Z,94650.1
2022-12-11T01:49:14.196Z,94652.9
2022-12-11T01:50:16.672Z,94652.1
2022-12-11T01:51:19.143Z,94654.2
2022-12-11T01:52:21.628Z,94652.7
2022-12-11T01:53:24.101Z,94655.3
2022-12-11T01:54:26.585Z,94653
2022-12-11T01:55:28.781Z,94653.9
2022-12-11T01:56:30.983Z,94652.4
2022-12-11T01:57:33.181Z,94653.7
2022-12-11T01:58:35.756Z,94653.6
2022-12-11T01:59:38.251Z,94652.1
2022-12-11T02:00:40.737Z,94650
2022-12-11T02:01:42.629Z,94654.1
2022-12-11T02:02:45.177Z,94655.3
2022-12-11T02:03:47.190Z,94656.2
2022-12-11T02:04:49.678Z,94652.9
2022-12-11T02:05:51.872Z,94651.6
2022-12-11T02:06:54.374Z,94653.9
2022-12-11T02:07:56.748Z,94651
2022-12-11T02:08:59.309Z,94649.7
2022-12-11T02:10:01.507Z,94654.7
2022-12-11T02:11:03.993Z,94650.7
2022-12-11T02:12:06.194Z,94651.4
2022-12-11T02:13:08.682Z,94644
2022-12-11T02:14:11.240Z,94643.8
2022-12-11T02:15:14.588Z,94639.6
2022-12-11T02:16:17.045Z,94638.5
2022-12-11T02:17:19.034Z,94639.2
2022-12-11T02:18:21.515Z,94645.5
2022-12-11T02:19:23.994Z,94638.9
2022-12-11T02:20:26.468Z,94637.2
2022-12-11T02:21:28.965Z,94635.4
2022-12-11T02:22:31.163Z,94638.6
2022-12-11T02:23:33.695Z,94634.9
2022-12-11T02:24:35.903Z,94634.5
2022-12-11T02:25:38.390Z,94635.8
2022-12-11T02:26:40.852Z,94635.7
2022-12-11T02:27:43.073Z,94635.1
2022-12-11T02:28:45.561Z,94634.4
2022-12-11T02:29:48.132Z,94633.5
2022-12-11T02:30:50.646Z,94630.7
2022-12-11T02:31:53.421Z,94638.3
2022-12-11T02:32:55.989Z,94635.7
2022-12-11T02:33:58.194Z,94635.5
2022-12-11T02:35:00.402Z,94632.5
2022-12-11T02:36:02.607Z,94633.8
2022-12-11T02:37:04.833Z,94632.4
2022-12-11T02:38:07.048Z,94636.9
2022-12-11T02:39:09.513Z,94636
2022-12-11T02:40:12.010Z,94643.3
2022-12-11T02:41:14.491Z,94637.2
2022-12-11T02:42:16.682Z,94638.6
2022-12-11T02:43:18.856Z,94635.2
2022-12-11T02:44:21.320Z,94637.2
2022-12-11T02:45:23.894Z,94638.1
2022-12-11T02:46:26.405Z,94641.9
2022-12-11T02:47:28.615Z,94638.7
2022-12-11T02:48:30.799Z,94636.3
2022-12-11T02:49:33.295Z,94636.5
2022-12-11T02:50:35.766Z,94640.5
2022-12-11T02:51:37.704Z,94637.5
2022-12-11T02:52:39.897Z,94642.9
2022-12-11T02:53:42.372Z,94640.7
2022-12-11T02:54:44.595Z,94647.5
2022-12-11T02:55:46.788Z,94643.9
2022-12-11T02:56:49.018Z,94645.9
2022-12-11T02:57:51.230Z,94646.2
2022-12-11T02:59:58.142Z,94644.2
2022-12-11T03:01:01.079Z,94642.6
2022-12-11T03:02:03.969Z,94644.3
2022-12-11T03:03:06.264Z,94645.4
2022-12-11T03:04:08.743Z,94646.3
2022-12-11T03:05:12.605Z,94646.2
2022-12-11T03:06:15.240Z,94644.7
2022-12-11T03:07:17.719Z,94649.8
2022-12-11T03:08:20.402Z,94643.4
2022-12-11T03:09:22.931Z,94643.9
2022-12-11T03:10:25.411Z,94639.8
2022-12-11T03:11:27.915Z,94639
2022-12-11T03:12:30.108Z,94639.8
2022-12-11T03:13:32.571Z,94646.1
2022-12-11T03:14:34.785Z,94644
2022-12-11T03:15:37.269Z,94638.6
2022-12-11T03:16:40.350Z,94644.7
2022-12-11T03:17:42.772Z,94640.4
2022-12-11T03:18:44.983Z,94643.8
2022-12-11T03:19:47.451Z,94646
2022-12-11T03:20:49.930Z,94649.6
2022-12-11T03:21:52.125Z,94648.5
2022-12-11T03:22:54.610Z,94646.8
2022-12-11T03:23:56.827Z,94647.5
2022-12-11T03:24:59.317Z,94647.3
2022-12-11T03:26:01.507Z,94644
2022-12-11T03:28:08.967Z,94643
2022-12-11T03:29:11.179Z,94643.8
2022-12-11T03:30:13.111Z,94648.1
2022-12-11T03:31:15.594Z,94649.1
2022-12-11T03:32:18.265Z,94648.1
2022-12-11T03:33:20.773Z,94647.6
2022-12-11T03:34:23.258Z,94651
2022-12-11T03:35:25.746Z,94655.6
2022-12-11T03:36:28.225Z,94651.4
2022-12-11T03:37:30.424Z,94652.7
2022-12-11T03:38:32.917Z,94655.6
2022-12-11T03:39:35.389Z,94651.4
2022-12-11T03:40:37.875Z,94653.2
2022-12-11T03:41:40.345Z,94655.6
2022-12-11T03:42:42.846Z,94653.2
2022-12-11T03:43:45.041Z,94656.4
2022-12-11T03:44:47.530Z,94651.7
2022-12-11T03:45:50.248Z,94653
2022-12-11T03:46:52.844Z,94658.4
2022-12-11T03:47:55.400Z,94655.3
2022-12-11T03:48:57.908Z,94658.9
2022-12-11T03:50:00.396Z,94655.4
2022-12-11T03:51:02.608Z,94656.6
2022-12-11T03:52:05.086Z,94653.1
2022-12-11T03:53:07.323Z,94653.7
2022-12-11T03:54:09.788Z,94662.2
2022-12-11T03:55:13.480Z,94657.3
2022-12-11T03:56:16.007Z,94660
2022-12-11T03:57:18.492Z,94660.5
2022-12-11T03:58:21.019Z,94663.3
2022-12-11T03:59:22.935Z,94659.4
2022-12-11T04:00:25.406Z,94663.7
2022-12-11T04:01:28.212Z,94663.1
2022-12-11T04:02:30.765Z,94664.5
2022-12-11T04:03:33.325Z,94660.7
2022-12-11T04:04:36.008Z,94664.4
2022-12-11T04:05:38.573Z,94667.1
2022-12-11T04:06:41.048Z,94664.2
2022-12-11T04:07:43.663Z,94665
2022-12-11T04:08:45.717Z,94669.8
2022-12-11T04:09:48.203Z,94667.3
2022-12-11T04:10:50.375Z,94662
2022-12-11T04:11:52.572Z,94657.7
2022-12-11T04:12:54.773Z,94662.1
2022-12-11T04:13:56.415Z,94659.7
2022-12-11T04:14:58.895Z,94659.4
2022-12-11T04:16:01.318Z,94661.1
2022-12-11T04:17:03.879Z,94661.6
2022-12-11T04:18:06.364Z,94662
2022-12-11T04:19:08.917Z,94659.4
2022-12-11T04:20:11.149Z,94659
2022-12-11T04:21:13.353Z,94660.8
2022-12-11T04:22:15.296Z,94658
2022-12-11T04:23:17.775Z,94658.3
2022-12-11T04:24:20.241Z,94658.6
2022-12-11T04:25:22.731Z,94659.8
2022-12-11T04:26:25.207Z,94658.9
2022-12-11T04:27:27.757Z,94661.6
2022-12-11T04:28:29.966Z,94655.8
2022-12-11T04:29:32.451Z,94656.8
2022-12-11T04:30:36.016Z,94653.8
2022-12-11T04:31:38.499Z,94657.7
2022-12-11T04:32:40.972Z,94653.5
2022-12-11T04:33:42.918Z,94653
2022-12-11T04:34:45.487Z,94650.7
2022-12-11T04:35:48.009Z,94654
2022-12-11T04:36:50.206Z,94651.3
2022-12-11T04:37:52.414Z,94652.8
2022-12-11T04:38:54.893Z,94649.6
2022-12-11T04:39:57.372Z,94649.8
2022-12-11T04:40:59.842Z,94649.4
2022-12-11T04:42:02.330Z,94651.1
2022-12-11T04:43:04.531Z,94648.5
2022-12-11T04:44:06.774Z,94654.1
2022-12-11T04:45:10.667Z,94650.2
2022-12-11T04:46:14.131Z,94646.6
2022-12-11T04:47:16.471Z,94649.5
2022-12-11T04:48:18.659Z,94652.2
2022-12-11T04:49:20.868Z,94651.6
2022-12-11T04:50:23.448Z,94649.5
2022-12-11T04:51:25.942Z,94652.1
2022-12-11T04:52:28.159Z,94649
2022-12-11T04:53:30.631Z,94652.2
2022-12-11T04:54:33.113Z,94652.8
2022-12-11T04:55:35.584Z,94658.4
2022-12-11T04:56:37.517Z,94659.3
2022-12-11T04:57:39.717Z,94659.1
2022-12-11T04:58:42.202Z,94658.1
2022-12-11T04:59:44.672Z,94654.8
2022-12-11T05:00:47.153Z,94648
2022-12-11T05:01:49.256Z,94648.4
2022-12-11T05:02:52.265Z,94646.6
2022-12-11T05:03:54.631Z,94644.4
2022-12-11T05:04:56.822Z,94643.6
2022-12-11T05:05:59.444Z,94642.1
2022-12-11T05:07:01.961Z,94643.8
2022-12-11T05:08:04.365Z,94649.1
2022-12-11T05:09:06.952Z,94643.7
2022-12-11T05:10:09.425Z,94646.4
2022-12-11T05:11:11.683Z,94642.6
2022-12-11T05:12:14.298Z,94645.4
2022-12-11T05:13:16.793Z,94642.9
2022-12-11T05:14:19.264Z,94641.3
2022-12-11T05:15:21.470Z,94642.4
2022-12-11T05:16:24.174Z,94640.3
2022-12-11T05:17:26.509Z,94638.9
2022-12-11T05:18:28.995Z,94637.9
2022-12-11T05:19:31.191Z,94641.1
2022-12-11T05:20:33.675Z,94637.9
2022-12-11T05:21:36.985Z,94635.4
2022-12-11T05:22:39.243Z,94640
2022-12-11T05:23:41.443Z,94639.4
2022-12-11T05:24:43.927Z,94640.2
2022-12-11T05:25:46.095Z,94629.9
2022-12-11T05:26:48.300Z,94630.8
2022-12-11T05:27:50.763Z,94634.4
2022-12-11T05:28:53.314Z,94633.1
2022-12-11T05:31:00.911Z,94626
2022-12-11T05:32:03.502Z,94632.1
2022-12-11T05:33:05.703Z,94629.8
2022-12-11T05:34:08.179Z,94631.3
2022-12-11T05:35:11.981Z,94634.5
2022-12-11T05:36:14.692Z,94630.5
2022-12-11T05:37:17.478Z,94632.3
2022-12-11T05:38:19.968Z,94637.4
2022-12-11T05:39:22.452Z,94633.3
2022-12-11T05:40:24.922Z,94634
2022-12-11T05:41:27.408Z,94632.4
2022-12-11T05:42:30.412Z,94631
2022-12-11T05:43:32.614Z,94629.4
2022-12-11T05:44:35.081Z,94634.4
2022-12-11T05:45:37.018Z,94635.3
2022-12-11T05:46:39.853Z,94638.4
2022-12-11T05:47:42.557Z,94630.6
2022-12-11T05:48:44.764Z,94632.6
2022-12-11T05:49:47.246Z,94632.6
2022-12-11T05:50:49.717Z,94630.9
2022-12-11T05:51:51.923Z,94630.6
2022-12-11T05:52:54.689Z,94633.5
2022-12-11T05:53:57.184Z,94628.9
2022-12-11T05:54:59.664Z,94632.9
2022-12-11T05:56:01.884Z,94627.6
2022-12-11T05:57:04.349Z,94628
2022-12-11T05:58:06.262Z,94626
2022-12-11T05:59:08.733Z,94628.7
2022-12-11T06:00:10.944Z,94634.6
2022-12-11T06:01:13.422Z,94631.6
2022-12-11T06:02:16.740Z,94630.6
2022-12-11T06:03:19.388Z,94629.3
2022-12-11T06:04:21.911Z,94627.3
2022-12-11T06:05:24.388Z,94627.2
2022-12-11T06:06:26.590Z,94627.5
2022-12-11T06:07:29.055Z,94628
2022-12-11T06:08:31.630Z,94629.7
2022-12-11T06:09:34.124Z,94620.1
2022-12-11T06:10:36.607Z,94625.9
2022-12-11T06:11:39.075Z,94623.6
2022-12-11T06:12:41.559Z,94619.9
2022-12-11T06:13:44.028Z,94624.9
2022-12-11T06:14:46.221Z,94625.4
2022-12-11T06:15:48.689Z,94621.8
2022-12-11T06:16:51.211Z,94626.1
2022-12-11T06:17:53.500Z,94628.8
2022-12-11T06:20:00.395Z,94627.8
2022-12-11T06:21:02.876Z,94625.3
2022-12-11T06:22:05.087Z,94627.1
2022-12-11T06:23:07.012Z,94629.5
2022-12-11T06:24:09.679Z,94627.2
2022-12-11T06:25:13.892Z,94624.2
2022-12-11T06:26:16.479Z,94626.6
2022-12-11T06:27:18.951Z,94626.7
2022-12-11T06:28:21.141Z,94622.5
2022-12-11T06:29:23.617Z,94623.8
2022-12-11T06:31:31.291Z,94625.3
2022-12-11T06:32:33.839Z,94624.9
2022-12-11T06:33:36.081Z,94631.6
2022-12-11T06:34:38.292Z,94628.8
2022-12-11T06:36:45.775Z,94624.5
2022-12-11T06:37:48.248Z,94621.1
2022-12-11T06:38:50.173Z,94623.2
2022-12-11T06:39:52.828Z,94623.3
2022-12-11T06:40:55.323Z,94621
2022-12-11T06:41:57.797Z,94625.7
2022-12-11T06:43:00.010Z,94622
2022-12-11T06:44:02.483Z,94619.5
2022-12-11T06:45:04.696Z,94623.2
2022-12-11T06:46:07.475Z,94623.8
2022-12-11T06:47:10.177Z,94620.6
2022-12-11T06:48:12.654Z,94623
2022-12-11T06:49:14.851Z,94619
2022-12-11T06:50:17.055Z,94619.4
2022-12-11T06:51:19.277Z,94623.3
2022-12-11T06:52:21.196Z,94625.6
2022-12-11T06:53:23.203Z,94615
2022-12-11T06:54:25.681Z,94617.3
2022-12-11T06:55:28.253Z,94617.8
2022-12-11T06:56:30.739Z,94620.9
2022-12-11T06:57:33.230Z,94615.2
2022-12-11T06:58:35.700Z,94618.6
2022-12-11T06:59:37.638Z,94624.2
2022-12-11T07:00:40.342Z,94621.5
2022-12-11T07:01:42.615Z,94619.9
2022-12-11T07:02:44.788Z,94622.7
2022-12-11T07:03:46.993Z,94627.7
2022-12-11T07:05:54.449Z,94625.6
2022-12-11T07:06:56.644Z,94622.7
2022-12-11T07:07:59.364Z,94627.4
2022-12-11T07:09:01.413Z,94626.5
2022-12-11T07:11:08.966Z,94628.3
2022-12-11T07:12:11.200Z,94631.5
2022-12-11T07:13:13.687Z,94631.4
2022-12-11T07:14:15.902Z,94632.3
2022-12-11T07:15:18.431Z,94631.9
2022-12-11T07:16:20.950Z,94636.5
2022-12-11T07:17:23.545Z,94634.3
2022-12-11T07:18:26.232Z,94634.4
2022-12-11T07:19:28.418Z,94638.4
2022-12-11T07:20:30.617Z,94637.5
2022-12-11T07:21:33.100Z,94642.7
2022-12-11T07:22:35.573Z,94643.6
2022-12-11T07:23:38.054Z,94638.2
2022-12-11T07:24:39.984Z,94644.6
2022-12-11T07:25:42.195Z,94640.9
2022-12-11T07:26:44.778Z,94646.8
2022-12-11T07:27:46.457Z,94646.8
2022-12-11T07:28:48.971Z,94645.7
2022-12-11T07:29:51.456Z,94647.6
2022-12-11T07:30:53.924Z,94647.6
2022-12-11T07:31:56.081Z,94651.8
2022-12-11T07:32:58.850Z,94651.8
2022-12-11T07:34:01.142Z,94653
2022-12-11T07:35:03.629Z,94650.1
2022-12-11T07:36:06.117Z,94649.2
2022-12-11T07:37:08.015Z,94653.9
2022-12-11T07:38:09.943Z,94648.3
2022-12-11T07:39:12.148Z,94651.4
2022-12-11T07:40:14.384Z,94652.1
2022-12-11T07:41:16.869Z,94651.8
2022-12-11T07:42:19.443Z,94651.3
2022-12-11T07:43:21.671Z,94655
2022-12-11T07:44:23.903Z,94651.4
2022-12-11T07:45:26.384Z,94650
2022-12-11T07:46:28.861Z,94648.7
2022-12-11T07:47:31.335Z,94647.5
2022-12-11T07:48:33.540Z,94641.2
2022-12-11T07:49:35.759Z,94644.5
2022-12-11T07:51:42.946Z,94641.3
2022-12-11T07:52:44.865Z,94645.9
2022-12-11T07:53:47.346Z,94647.2
2022-12-11T07:54:49.557Z,94642.9
2022-12-11T07:55:52.042Z,94645
2022-12-11T07:56:55.273Z,94644
2022-12-11T07:57:58.068Z,94642.7
2022-12-11T07:59:00.326Z,94642
2022-12-11T08:00:02.255Z,94642.2
2022-12-11T08:01:05.008Z,94643.2
2022-12-11T08:02:07.897Z,94637.3
2022-12-11T08:03:10.177Z,94639.3
2022-12-11T08:04:12.667Z,94639.9
2022-12-11T08:05:15.521Z,94645.5
2022-12-11T08:06:17.444Z,94644.2
2022-12-11T08:07:19.643Z,94644
2022-12-11T08:08:22.139Z,94645
2022-12-11T08:09:24.194Z,94642.8
2022-12-11T08:10:27.026Z,94648.6
2022-12-11T08:11:29.546Z,94648.3
2022-12-11T08:12:31.749Z,94645.5
2022-12-11T08:13:34.328Z,94646.3
2022-12-11T08:14:36.585Z,94651.3
2022-12-11T08:15:39.055Z,94649
2022-12-11T08:16:41.788Z,94652.4
2022-12-11T08:17:44.056Z,94651.2
2022-12-11T08:18:46.544Z,94646.1
2022-12-11T08:19:48.481Z,94651.1
2022-12-11T08:20:50.418Z,94650
2022-12-11T08:21:52.629Z,94652.5
2022-12-11T08:23:59.847Z,94648.4
2022-12-11T08:25:01.483Z,94654.6
2022-12-11T08:26:03.752Z,94650.2
2022-12-11T08:27:06.266Z,94654.7
2022-12-11T08:28:08.451Z,94654.8
2022-12-11T08:29:10.708Z,94654.5
2022-12-11T08:30:13.213Z,94661.5
2022-12-11T08:31:15.736Z,94658.6
2022-12-11T08:32:18.322Z,94659.6
2022-12-11T08:33:20.522Z,94659.8
2022-12-11T08:34:23.008Z,94657.6
2022-12-11T08:35:25.497Z,94659.5
2022-12-11T08:36:27.736Z,94656.5
2022-12-11T08:37:29.949Z,94660.3
2022-12-11T08:38:32.167Z,94662.1
2022-12-11T08:39:34.380Z,94660.5
2022-12-11T08:40:36.589Z,94661.5
2022-12-11T08:41:38.800Z,94660.2
2022-12-11T08:42:41.025Z,94659.7
2022-12-11T08:43:43.499Z,94659.7
2022-12-11T08:44:45.875Z,94661.4
2022-12-11T08:45:48.742Z,94662.5
2022-12-11T08:46:51.349Z,94659.4
2022-12-11T08:47:53.558Z,94671.2
2022-12-11T08:48:56.109Z,94669.7
2022-12-11T08:49:58.581Z,94664.8
2022-12-11T08:51:01.071Z,94671.4
2022-12-11T08:52:03.551Z,94670.1
2022-12-11T08:53:06.055Z,94671.1
2022-12-11T08:54:08.287Z,94673.1
2022-12-11T08:55:12.209Z,94670.6
2022-12-11T08:56:15.108Z,94672.8
2022-12-11T08:57:17.611Z,94677
2022-12-11T08:58:19.824Z,94677.8
2022-12-11T08:59:22.317Z,94674.9
2022-12-11T09:00:24.907Z,94677.1
2022-12-11T09:01:28.021Z,94674.5
2022-12-11T09:02:30.837Z,94677.1
2022-12-11T09:03:33.462Z,94671.3
2022-12-11T09:04:35.672Z,94677.9
2022-12-11T09:05:38.155Z,94673.8
2022-12-11T09:06:40.343Z,94676.3
2022-12-11T09:07:42.537Z,94674.5
2022-12-11T09:09:49.736Z,94674.9
2022-12-11T09:10:51.945Z,94675.3
2022-12-11T09:11:54.464Z,94675.3
2022-12-11T09:12:56.976Z,94674.5
2022-12-11T09:15:04.444Z,94676.6
2022-12-11T09:16:07.079Z,94681
2022-12-11T09:17:09.486Z,94675.5
2022-12-11T09:18:11.738Z,94674.7
2022-12-11T09:19:13.988Z,94674.9
2022-12-11T09:20:16.239Z,94671.3
2022-12-11T09:21:18.757Z,94674.9
2022-12-11T09:22:21.233Z,94671.3
2022-12-11T09:23:23.778Z,94672.1
2022-12-11T09:24:25.713Z,94665.5
2022-12-11T09:25:28.226Z,94668.4
2022-12-11T09:26:30.776Z,94667.3
2022-12-11T09:27:32.740Z,94666
2022-12-11T09:28:34.658Z,94660.6
2022-12-11T09:29:36.348Z,94665.9
2022-12-11T09:30:38.837Z,94660.3
2022-12-11T09:31:41.527Z,94663.8
2022-12-11T09:32:43.770Z,94663
2022-12-11T09:33:46.307Z,94662.9
2022-12-11T09:34:48.516Z,94660.6
2022-12-11T09:35:50.715Z,94664.5
2022-12-11T09:36:52.919Z,94664.3
2022-12-11T09:37:55.434Z,94664.1
2022-12-11T09:38:57.915Z,94665.8
2022-12-11T09:41:05.113Z,94667.5
2022-12-11T09:42:07.310Z,94663.6
2022-12-11T09:43:09.252Z,94666.5
2022-12-11T09:44:11.732Z,94661.6
2022-12-11T09:45:14.825Z,94660.4
2022-12-11T09:46:17.604Z,94661.9
2022-12-11T09:47:20.304Z,94662.3
2022-12-11T09:48:22.531Z,94660.3
2022-12-11T09:49:25.046Z,94652.8
2022-12-11T09:50:27.268Z,94657.2
2022-12-11T09:51:29.488Z,94651.5
2022-12-11T09:52:31.996Z,94647.8
2022-12-11T09:53:36.011Z,94648
2022-12-11T09:54:38.213Z,94650.1
2022-12-11T09:55:40.703Z,94648.3
2022-12-11T09:56:43.186Z,94653.9
2022-12-11T09:57:45.423Z,94653.6
2022-12-11T09:58:47.907Z,94654.6
2022-12-11T09:59:49.844Z,94651.8
2022-12-11T10:00:52.047Z,94652.5
2022-12-11T10:01:54.725Z,94652.8
2022-12-11T10:02:57.663Z,94651.3
2022-12-11T10:04:00.293Z,94651.2
2022-12-11T10:05:02.486Z,94653
2022-12-11T10:06:06.907Z,94645.7
2022-12-11T10:07:08.553Z,94644.9
2022-12-11T10:08:11.348Z,94647.5
2022-12-11T10:09:13.619Z,94648.5
2022-12-11T10:10:16.106Z,94643.4
2022-12-11T10:11:17.728Z,94645.4
2022-12-11T10:12:20.220Z,94645.3
2022-12-11T10:13:22.140Z,94645.7
2022-12-11T10:14:24.753Z,94640.2
2022-12-11T10:15:27.671Z,94641.6
2022-12-11T10:16:29.959Z,94639.5
2022-12-11T10:17:32.446Z,94640.9
2022-12-11T10:18:35.044Z,94636.5
2022-12-11T10:19:37.270Z,94637.8
2022-12-11T10:20:39.186Z,94634.2
2022-12-11T10:21:41.391Z,94633.2
2022-12-11T10:22:43.881Z,94629.3
2022-12-11T10:23:46.084Z,94629.4
2022-12-11T10:25:53.006Z,94621.3
2022-12-11T10:26:54.663Z,94621.8
2022-12-11T10:27:57.155Z,94621.9
2022-12-11T10:28:58.794Z,94619.4
2022-12-11T10:30:01.280Z,94614
2022-12-11T10:31:04.113Z,94617.5
2022-12-11T10:32:06.438Z,94613.1
2022-12-11T10:33:08.658Z,94616.6
2022-12-11T10:34:11.245Z,94616.4
2022-12-11T10:35:14.506Z,94615.2
2022-12-11T10:36:16.728Z,94615.8
2022-12-11T10:37:18.928Z,94614.8
2022-12-11T10:38:21.151Z,94618.6
2022-12-11T10:39:23.749Z,94616.8
2022-12-11T10:40:26.007Z,94613
2022-12-11T10:41:28.488Z,94616.9
2022-12-11T10:42:30.980Z,94613.8
2022-12-11T10:43:33.188Z,94608.3
2022-12-11T10:44:35.395Z,94612.2
2022-12-11T10:45:37.879Z,94608.3
2022-12-11T10:46:40.401Z,94607.3
2022-12-11T10:47:43.036Z,94600.9
2022-12-11T10:48:47.002Z,94604.9
2022-12-11T10:49:49.585Z,94602.7
2022-12-11T10:50:52.109Z,94605.5
2022-12-11T10:51:54.318Z,94604.8
2022-12-11T10:52:55.966Z,94601.8
2022-12-11T10:55:04.191Z,94597.1
2022-12-11T10:56:06.436Z,94598.3
2022-12-11T10:57:08.985Z,94594.1
2022-12-11T10:58:11.476Z,94598.4
2022-12-11T10:59:14.026Z,94600
2022-12-11T11:00:16.717Z,94594.4
2022-12-11T11:01:19.113Z,94596.3
2022-12-11T11:02:21.904Z,94594.8
2022-12-11T11:03:23.898Z,94594.7
2022-12-11T11:04:26.406Z,94595.1
2022-12-11T11:05:28.969Z,94591
2022-12-11T11:06:30.938Z,94595.4
2022-12-11T11:07:33.431Z,94590.6
2022-12-11T11:08:35.634Z,94585.1
2022-12-11T11:09:38.137Z,94587.7
2022-12-11T11:10:40.345Z,94588.5
2022-12-11T11:11:42.302Z,94584.5
2022-12-11T11:12:44.784Z,94583
2022-12-11T11:13:46.987Z,94579.5
2022-12-11T11:14:49.462Z,94578.4
2022-12-11T11:15:51.904Z,94573.9
2022-12-11T11:16:53.875Z,94577.1
2022-12-11T11:17:57.700Z,94571.9
2022-12-11T11:18:59.629Z,94572.4
2022-12-11T11:20:02.128Z,94574.2
2022-12-11T11:21:04.684Z,94576.8
2022-12-11T11:22:06.930Z,94570.7
2022-12-11T11:23:09.142Z,94574.4
2022-12-11T11:24:11.083Z,94574
2022-12-11T11:25:14.622Z,94573.1
2022-12-11T11:26:16.822Z,94570.2
2022-12-11T11:27:19.312Z,94567.8
2022-12-11T11:28:20.974Z,94567.7
2022-12-11T11:29:23.473Z,94564.9
2022-12-11T11:30:25.965Z,94563.1
2022-12-11T11:31:28.619Z,94563.4
2022-12-11T11:32:31.253Z,94562
2022-12-11T11:33:33.456Z,94559.3
2022-12-11T11:34:35.937Z,94556.7
2022-12-11T11:36:43.193Z,94553.4
2022-12-11T11:37:45.714Z,94552.1
2022-12-11T11:38:47.647Z,94555.7
2022-12-11T11:39:50.130Z,94552.4
2022-12-11T11:40:52.615Z,94549
2022-12-11T11:41:55.094Z,94549.6
2022-12-11T11:42:57.585Z,94543.6
2022-12-11T11:43:59.511Z,94550.2
2022-12-11T11:45:02.000Z,94546.1
2022-12-11T11:46:04.340Z,94543.1
2022-12-11T11:47:06.712Z,94543.4
2022-12-11T11:49:13.888Z,94540.7
2022-12-11T11:50:15.793Z,94541
2022-12-11T11:51:18.287Z,94540.3
2022-12-11T11:52:20.927Z,94538.4
2022-12-11T11:53:23.477Z,94540.5
2022-12-11T11:54:25.393Z,94542.1
2022-12-11T11:55:27.610Z,94538.9
2022-12-11T11:56:30.095Z,94539.7
2022-12-11T11:57:32.581Z,94544.8
2022-12-11T11:58:34.794Z,94539.3
2022-12-11T11:59:37.301Z,94539.8
2022-12-11T12:00:39.218Z,94542.3
2022-12-11T12:01:41.713Z,94545
2022-12-11T12:02:44.378Z,94541.4
2022-12-11T12:03:46.643Z,94542.5
2022-12-11T12:04:48.564Z,94543.1
2022-12-11T12:05:51.058Z,94544.5
2022-12-11T12:06:53.274Z,94543.1
2022-12-11T12:07:56.012Z,94545
2022-12-11T12:08:58.295Z,94540
2022-12-11T12:10:00.508Z,94539.7
2022-12-11T12:11:02.793Z,94539.8
2022-12-11T12:12:05.004Z,94543
2022-12-11T12:15:17.446Z,94541
2022-12-11T12:17:24.697Z,94532.1
2022-12-11T12:18:27.289Z,94532.9
2022-12-11T12:19:29.777Z,94533
2022-12-11T12:20:32.254Z,94533.3
2022-12-11T12:21:34.732Z,94527.7
2022-12-11T12:22:37.213Z,94533.8
2022-12-11T12:23:39.792Z,94527.5
2022-12-11T12:24:42.313Z,94530.6
2022-12-11T12:25:44.801Z,94529.2
2022-12-11T12:26:47.012Z,94535.5
2022-12-11T12:28:54.535Z,94533.3
2022-12-11T12:29:57.033Z,94538.4
2022-12-11T12:30:58.963Z,94544
2022-12-11T12:32:01.137Z,94546.4
2022-12-11T12:33:03.380Z,94538.8
2022-12-11T12:34:05.590Z,94537.5
2022-12-11T12:35:08.185Z,94539.7
2022-12-11T12:36:11.057Z,94538.8
2022-12-11T12:37:13.557Z,94542.8
2022-12-11T12:38:15.491Z,94541.3
2022-12-11T12:39:18.056Z,94540.2
2022-12-11T12:40:20.578Z,94532.5
2022-12-11T12:41:22.492Z,94532.9
2022-12-11T12:42:24.978Z,94529
2022-12-11T12:43:27.472Z,94530.1
2022-12-11T12:44:29.659Z,94530.1
2022-12-11T12:45:31.835Z,94527.7
2022-12-11T12:46:34.421Z,94535.3
2022-12-11T12:47:36.907Z,94532.6
2022-12-11T12:48:38.563Z,94533.1
2022-12-11T12:49:41.060Z,94531.5
2022-12-11T12:50:43.540Z,94531.1
2022-12-11T12:51:45.472Z,94531.2
2022-12-11T12:52:47.666Z,94531.7
2022-12-11T12:53:50.198Z,94530.3
2022-12-11T12:54:52.750Z,94530
2022-12-11T12:55:59.430Z,94528.9
2022-12-11T12:57:01.106Z,94532.8
2022-12-11T12:58:03.599Z,94535.1
2022-12-11T12:59:06.097Z,94532
2022-12-11T13:01:13.881Z,94529.3
2022-12-11T13:02:16.517Z,94532.4
2022-12-11T13:03:19.009Z,94528.1
2022-12-11T13:05:26.207Z,94531.6
2022-12-11T13:06:28.421Z,94533.1